createdAt,value
2023-03-06T00:00:59.969Z,7.95
2023-03-06T00:04:02.899Z,6.80
2023-03-06T00:07:05.565Z,9.27
2023-03-06T00:10:09.285Z,10.83
2023-03-06T00:13:13.645Z,10.85
2023-03-06T00:16:16.425Z,12.27
2023-03-06T00:19:18.983Z,14.00
2023-03-06T00:22:21.828Z,10.63
2023-03-06T00:25:24.930Z,9.00
2023-03-06T00:28:31.018Z,6.97
2023-03-06T00:31:34.072Z,7.82
2023-03-06T00:34:36.960Z,8.13
2023-03-06T00:37:40.084Z,8.10
2023-03-06T00:40:42.862Z,8.50
2023-03-06T00:43:45.516Z,7.10
2023-03-06T00:46:48.331Z,10.38
2023-03-06T00:49:51.052Z,8.80
2023-03-06T00:52:54.724Z,7.63
2023-03-06T00:55:57.307Z,9.67
2023-03-06T00:59:00.097Z,9.18
2023-03-06T01:02:03.913Z,7.25
2023-03-06T01:05:08.304Z,9.00
2023-03-06T01:08:10.932Z,8.13
2023-03-06T01:11:13.815Z,5.87
2023-03-06T01:14:19.106Z,12.23
2023-03-06T01:17:21.955Z,10.43
2023-03-06T01:20:24.788Z,8.63
2023-03-06T01:23:27.629Z,9.97
2023-03-06T01:26:30.563Z,7.50
2023-03-06T01:29:34.040Z,7.75
2023-03-06T01:32:36.644Z,8.15
2023-03-06T01:35:40.041Z,8.50
2023-03-06T01:38:43.140Z,7.70
2023-03-06T01:41:46.147Z,8.53
2023-03-06T01:45:20.864Z,7.00
2023-03-06T01:48:24.581Z,7.80
2023-03-06T01:51:33.955Z,8.75
2023-03-06T01:54:42.961Z,9.23
2023-03-06T01:57:47.711Z,7.60
2023-03-06T02:00:50.550Z,11.43
2023-03-06T02:03:53.563Z,8.00
2023-03-06T02:06:57.079Z,7.40
2023-03-06T02:09:59.993Z,6.47
2023-03-06T02:13:03.056Z,8.43
2023-03-06T02:16:07.149Z,6.80
2023-03-06T02:19:39.719Z,9.48
2023-03-06T02:22:54.433Z,6.87
2023-03-06T02:25:58.806Z,6.87
2023-03-06T02:29:01.932Z,8.77
2023-03-06T02:32:05.377Z,7.12
2023-03-06T02:35:34.510Z,9.00
2023-03-06T02:38:44.380Z,12.07
2023-03-06T02:41:47.097Z,9.17
2023-03-06T02:44:52.263Z,10.80
2023-03-06T02:47:55.003Z,10.25
2023-03-06T02:50:57.975Z,8.48
2023-03-06T02:54:01.640Z,9.75
2023-03-06T02:57:04.616Z,9.40
2023-03-06T03:00:08.514Z,9.83
2023-03-06T03:03:11.472Z,9.27
2023-03-06T03:06:14.152Z,7.55
2023-03-06T03:09:17.819Z,8.65
2023-03-06T03:12:22.393Z,8.07
2023-03-06T03:15:26.080Z,9.93
2023-03-06T03:18:29.367Z,9.35
2023-03-06T03:21:32.318Z,9.98
2023-03-06T03:24:35.332Z,10.27
2023-03-06T03:27:38.810Z,8.67
2023-03-06T03:30:42.777Z,7.60
2023-03-06T03:33:46.210Z,9.45
2023-03-06T03:36:49.131Z,9.93
2023-03-06T03:39:52.101Z,8.55
2023-03-06T03:42:54.861Z,10.50
2023-03-06T03:45:58.057Z,9.50
2023-03-06T03:49:00.980Z,10.65
2023-03-06T03:52:04.588Z,9.23
2023-03-06T03:55:08.116Z,7.78
2023-03-06T03:58:12.422Z,7.77
2023-03-06T04:01:15.001Z,7.73
2023-03-06T04:04:18.459Z,8.75
2023-03-06T04:07:21.313Z,10.45
2023-03-06T04:10:24.770Z,6.95
2023-03-06T04:13:27.552Z,8.10
2023-03-06T04:16:30.557Z,9.30
2023-03-06T04:19:33.402Z,6.03
2023-03-06T04:22:36.965Z,7.82
2023-03-06T04:25:40.522Z,9.65
2023-03-06T04:28:43.921Z,8.70
2023-03-06T04:31:46.659Z,8.13
2023-03-06T04:34:49.988Z,8.30
2023-03-06T04:37:52.580Z,16.33
2023-03-06T04:40:56.344Z,11.93
2023-03-06T04:43:59.203Z,8.95
2023-03-06T04:47:02.091Z,8.75
2023-03-06T04:50:05.236Z,10.10
2023-03-06T04:53:09.044Z,7.05
2023-03-06T04:56:11.624Z,10.23
2023-03-06T04:59:14.452Z,8.93
2023-03-06T05:02:17.843Z,8.45
2023-03-06T05:05:20.718Z,11.18
2023-03-06T05:08:23.985Z,10.35
2023-03-06T05:11:27.365Z,8.77
2023-03-06T05:14:30.616Z,6.45
2023-03-06T05:17:33.436Z,9.38
2023-03-06T05:20:36.155Z,8.23
2023-03-06T05:23:38.955Z,10.63
2023-03-06T05:26:41.485Z,11.13
2023-03-06T05:29:44.452Z,7.90
2023-03-06T05:32:47.260Z,11.70
2023-03-06T05:35:50.466Z,9.80
2023-03-06T05:38:53.260Z,9.60
2023-03-06T05:41:56.155Z,10.23
2023-03-06T05:44:58.785Z,10.98
2023-03-06T05:48:01.958Z,9.88
2023-03-06T05:51:05.797Z,9.07
2023-03-06T05:54:08.888Z,9.23
2023-03-06T05:57:11.484Z,12.50
2023-03-06T06:00:15.626Z,8.43
2023-03-06T06:03:20.702Z,10.57
2023-03-06T06:06:23.365Z,13.02
2023-03-06T06:09:27.573Z,12.75
2023-03-06T06:12:30.106Z,8.87
2023-03-06T06:15:33.196Z,12.50
2023-03-06T06:18:35.805Z,14.77
2023-03-06T06:21:38.725Z,14.70
2023-03-06T06:24:41.346Z,10.00
2023-03-06T06:27:44.241Z,18.40
2023-03-06T06:30:46.774Z,12.90
2023-03-06T06:33:49.679Z,12.48
2023-03-06T06:36:53.639Z,9.73
2023-03-06T06:39:56.805Z,11.48
2023-03-06T06:42:59.354Z,13.30
2023-03-06T06:46:28.315Z,13.80
2023-03-06T06:49:25.483Z,14.35
2023-03-06T06:52:28.489Z,11.55
2023-03-06T06:55:31.250Z,12.30
2023-03-06T06:58:34.193Z,13.83
2023-03-06T07:01:37.125Z,12.30
2023-03-06T07:04:49.291Z,11.50
2023-03-06T07:08:02.900Z,13.57
2023-03-06T07:11:08.229Z,12.68
2023-03-06T07:14:11.096Z,15.23
2023-03-06T07:17:13.994Z,12.65
2023-03-06T07:20:16.893Z,12.98
2023-03-06T07:23:20.002Z,14.55
2023-03-06T07:26:24.188Z,12.68
2023-03-06T07:29:27.245Z,14.00
2023-03-06T07:32:30.054Z,12.55
2023-03-06T07:35:33.372Z,18.48
2023-03-06T07:38:36.705Z,17.87
2023-03-06T07:41:39.541Z,12.80
2023-03-06T07:44:42.348Z,13.27
2023-03-06T07:47:45.324Z,15.73
2023-03-06T07:51:04.629Z,19.12
2023-03-06T07:54:07.684Z,12.70
2023-03-06T07:57:10.528Z,16.87
2023-03-06T08:00:15.427Z,29.80
2023-03-06T08:03:19.114Z,22.62
2023-03-06T08:06:24.311Z,17.45
2023-03-06T08:09:27.629Z,14.68
2023-03-06T08:12:30.662Z,16.92
2023-03-06T08:15:33.654Z,15.53
2023-03-06T08:18:39.953Z,18.87
2023-03-06T08:21:43.177Z,20.25
2023-03-06T08:24:45.871Z,13.15
2023-03-06T08:27:48.928Z,18.27
2023-03-06T08:30:51.637Z,11.33
2023-03-06T08:33:55.665Z,13.43
2023-03-06T08:36:58.453Z,18.58
2023-03-06T08:40:04.765Z,16.25
2023-03-06T08:43:13.084Z,21.37
2023-03-06T08:46:18.823Z,23.00
2023-03-06T08:49:21.847Z,16.25
2023-03-06T08:52:24.895Z,18.20
2023-03-06T08:55:28.282Z,13.62
2023-03-06T08:58:31.482Z,16.05
2023-03-06T09:01:36.989Z,23.07
2023-03-06T09:04:40.783Z,13.75
2023-03-06T09:07:43.651Z,15.23
2023-03-06T09:10:47.951Z,13.35
2023-03-06T09:13:51.009Z,14.15
2023-03-06T09:16:54.285Z,12.73
2023-03-06T09:19:56.945Z,13.23
2023-03-06T09:22:59.983Z,17.75
2023-03-06T09:26:03.111Z,14.77
2023-03-06T09:29:06.339Z,19.48
2023-03-06T09:32:11.140Z,8.30
2023-03-06T09:35:15.244Z,17.30
2023-03-06T09:38:23.534Z,14.25
2023-03-06T09:41:37.432Z,9.20
2023-03-06T09:44:41.323Z,10.88
2023-03-06T09:48:11.161Z,11.23
2023-03-06T09:51:17.490Z,3.20
2023-03-06T09:54:25.425Z,8.00
2023-03-06T09:57:35.738Z,8.57
2023-03-06T10:01:06.858Z,12.27
2023-03-06T10:04:44.298Z,12.43
2023-03-06T10:07:52.873Z,12.50
2023-03-06T10:11:10.766Z,13.60
2023-03-06T10:14:18.918Z,14.60
2023-03-06T10:17:23.069Z,20.80
2023-03-06T10:20:28.027Z,12.87
2023-03-06T10:23:54.869Z,15.68
2023-03-06T10:27:11.153Z,11.50
2023-03-06T10:30:20.733Z,14.02
2023-03-06T10:33:48.241Z,13.77
2023-03-06T10:36:51.266Z,15.37
2023-03-06T10:39:59.952Z,15.38
2023-03-06T10:43:11.421Z,12.73
2023-03-06T10:46:27.237Z,14.30
2023-03-06T10:49:31.835Z,14.65
2023-03-06T10:52:35.792Z,14.80
2023-03-06T10:55:38.771Z,15.85
2023-03-06T10:58:41.406Z,15.43
2023-03-06T11:01:46.779Z,16.52
2023-03-06T11:04:53.056Z,16.75
2023-03-06T11:07:59.497Z,18.13
2023-03-06T11:11:05.958Z,13.98
2023-03-06T11:14:18.011Z,15.52
2023-03-06T11:17:32.244Z,15.32
2023-03-06T11:20:51.357Z,14.05
2023-03-06T11:23:57.818Z,9.30
2023-03-06T11:27:17.357Z,15.88
2023-03-06T11:30:43.371Z,12.70
2023-03-06T11:33:54.212Z,7.65
2023-03-06T11:37:27.316Z,11.63
2023-03-06T11:40:52.085Z,9.40
2023-03-06T11:44:05.401Z,14.55
2023-03-06T11:47:18.024Z,14.00
2023-03-06T11:50:40.810Z,12.50
2023-03-06T11:53:43.961Z,9.57
2023-03-06T11:57:02.967Z,10.27
2023-03-06T12:00:12.278Z,10.63
2023-03-06T12:03:57.930Z,9.27
2023-03-06T12:07:00.731Z,10.18
2023-03-06T12:10:06.479Z,12.77
2023-03-06T12:13:18.016Z,9.83
2023-03-06T12:16:26.821Z,9.77
2023-03-06T12:20:07.348Z,7.37
2023-03-06T12:23:24.142Z,13.85
2023-03-06T12:26:39.096Z,11.10
2023-03-06T12:30:07.895Z,8.47
2023-03-06T12:33:35.261Z,8.93
2023-03-06T12:36:41.056Z,10.57
2023-03-06T12:39:52.737Z,7.87
2023-03-06T12:43:23.204Z,9.30
2023-03-06T12:46:27.110Z,9.77
2023-03-06T12:49:34.633Z,11.05
2023-03-06T12:52:37.477Z,8.18
2023-03-06T12:55:47.979Z,9.18
2023-03-06T12:58:53.100Z,10.27
2023-03-06T13:02:01.961Z,14.17
2023-03-06T13:05:14.053Z,15.05
2023-03-06T13:08:37.334Z,13.90
2023-03-06T13:12:14.003Z,9.07
2023-03-06T13:15:37.335Z,8.93
2023-03-06T13:18:49.157Z,21.13
2023-03-06T13:21:55.427Z,15.32
2023-03-06T13:25:27.115Z,17.45
2023-03-06T13:28:48.734Z,20.77
2023-03-06T13:31:54.459Z,18.92
2023-03-06T13:34:57.553Z,13.00
2023-03-06T13:38:00.445Z,14.23
2023-03-06T13:41:25.233Z,16.95
2023-03-06T13:44:28.434Z,14.20
2023-03-06T13:48:10.952Z,19.83
2023-03-06T13:51:24.451Z,23.70
2023-03-06T13:54:47.871Z,15.60
2023-03-06T13:58:13.301Z,13.15
2023-03-06T14:01:28.692Z,10.68
2023-03-06T14:04:34.428Z,26.20
2023-03-06T14:07:41.580Z,11.67
2023-03-06T14:10:46.113Z,13.62
2023-03-06T14:13:51.924Z,13.52
2023-03-06T14:16:55.307Z,12.23
2023-03-06T14:20:14.151Z,13.88
2023-03-06T14:23:32.258Z,20.70
2023-03-06T14:26:47.362Z,16.10
2023-03-06T14:29:50.256Z,11.15
2023-03-06T14:32:54.355Z,14.40
2023-03-06T14:36:01.282Z,14.15
2023-03-06T14:39:29.976Z,10.00
2023-03-06T14:42:33.703Z,16.02
2023-03-06T14:45:36.580Z,17.77
2023-03-06T14:48:44.487Z,17.80
2023-03-06T14:51:50.466Z,18.23
2023-03-06T14:54:54.258Z,18.90
2023-03-06T14:58:08.320Z,13.30
2023-03-06T15:01:13.360Z,17.45
2023-03-06T15:04:45.095Z,17.25
2023-03-06T15:07:48.507Z,14.23
2023-03-06T15:10:59.597Z,11.93
2023-03-06T15:14:04.788Z,14.80
2023-03-06T15:17:19.398Z,14.13
2023-03-06T15:20:56.054Z,12.25
2023-03-06T15:23:59.714Z,16.12
2023-03-06T15:27:05.233Z,16.00
2023-03-06T15:30:29.389Z,13.60
2023-03-06T15:33:32.304Z,19.25
2023-03-06T15:36:39.618Z,19.33
2023-03-06T15:39:43.507Z,15.00
2023-03-06T15:42:46.472Z,15.63
2023-03-06T15:45:49.396Z,17.08
2023-03-06T15:48:53.829Z,17.92
2023-03-06T15:51:56.926Z,13.57
2023-03-06T15:54:59.722Z,16.98
2023-03-06T15:58:03.318Z,41.70
2023-03-06T16:01:06.467Z,32.88
2023-03-06T16:04:09.599Z,37.03
2023-03-06T16:07:12.582Z,23.50
2023-03-06T16:10:18.612Z,20.23
2023-03-06T16:13:28.974Z,16.20
2023-03-06T16:16:37.322Z,22.15
2023-03-06T16:19:40.480Z,20.50
2023-03-06T16:22:45.003Z,21.25
2023-03-06T16:25:48.715Z,71.35
2023-03-06T16:28:51.709Z,125.77
2023-03-06T16:31:56.540Z,97.53
2023-03-06T16:34:59.650Z,66.25
2023-03-06T16:38:02.512Z,49.50
2023-03-06T16:41:05.654Z,55.33
2023-03-06T16:44:10.172Z,27.97
2023-03-06T16:47:14.572Z,18.90
2023-03-06T16:50:38.895Z,23.70
2023-03-06T16:53:46.514Z,17.85
2023-03-06T16:56:49.184Z,18.55
2023-03-06T16:59:52.308Z,33.97
2023-03-06T17:02:55.731Z,24.98
2023-03-06T17:05:58.791Z,24.35
2023-03-06T17:09:01.538Z,20.40
2023-03-06T17:12:04.714Z,26.55
2023-03-06T17:15:08.816Z,27.53
2023-03-06T17:18:12.063Z,25.62
2023-03-06T17:21:17.949Z,70.97
2023-03-06T17:24:21.113Z,48.50
2023-03-06T17:27:23.863Z,71.65
2023-03-06T17:30:27.235Z,27.73
2023-03-06T17:33:30.001Z,42.85
2023-03-06T17:36:33.116Z,62.28
2023-03-06T17:39:38.010Z,37.08
2023-03-06T17:42:41.329Z,29.20
2023-03-06T17:45:45.523Z,27.13
2023-03-06T17:48:48.669Z,31.62
2023-03-06T17:51:56.451Z,27.77
2023-03-06T17:54:59.954Z,24.42
2023-03-06T17:58:02.785Z,18.48
2023-03-06T18:01:22.442Z,51.63
2023-03-06T18:04:26.180Z,27.35
2023-03-06T18:07:29.019Z,32.75
2023-03-06T18:10:32.159Z,27.55
2023-03-06T18:13:37.598Z,22.98
2023-03-06T18:16:40.910Z,24.67
2023-03-06T18:19:43.745Z,21.37
2023-03-06T18:22:46.923Z,26.92
2023-03-06T18:25:50.507Z,30.92
2023-03-06T18:28:56.617Z,33.50
2023-03-06T18:31:59.539Z,25.23
2023-03-06T18:35:02.651Z,79.30
2023-03-06T18:38:05.532Z,49.22
2023-03-06T18:41:08.849Z,52.85
2023-03-06T18:44:14.664Z,49.83
2023-03-06T18:47:17.869Z,46.20
2023-03-06T18:50:20.976Z,12.75
2023-03-06T18:53:24.087Z,25.95
2023-03-06T18:56:27.133Z,32.15
2023-03-06T18:59:33.340Z,36.08
2023-03-06T19:02:36.192Z,22.00
2023-03-06T19:05:44.557Z,56.25
2023-03-06T19:08:48.104Z,24.67
2023-03-06T19:11:53.688Z,67.90
2023-03-06T19:14:58.986Z,46.72
2023-03-06T19:18:02.108Z,88.83
2023-03-06T19:21:14.367Z,40.17
2023-03-06T19:24:17.592Z,39.33
2023-03-06T19:27:20.618Z,27.92
2023-03-06T19:30:25.877Z,36.38
2023-03-06T19:33:28.735Z,35.20
2023-03-06T19:36:34.027Z,27.23
2023-03-06T19:39:36.985Z,25.12
2023-03-06T19:42:40.088Z,19.55
2023-03-06T19:45:44.190Z,24.10
2023-03-06T19:48:47.480Z,300.90
2023-03-06T19:51:50.610Z,115.78
2023-03-06T19:54:54.301Z,208.93
2023-03-06T19:57:57.777Z,68.90
2023-03-06T20:01:16.849Z,159.45
2023-03-06T20:04:20.075Z,47.93
2023-03-06T20:07:22.974Z,53.50
2023-03-06T20:10:25.979Z,126.50
2023-03-06T20:13:28.599Z,108.05
2023-03-06T20:16:32.677Z,68.78
2023-03-06T20:19:35.439Z,33.90
2023-03-06T20:22:38.561Z,37.28
2023-03-06T20:25:41.419Z,23.62
2023-03-06T20:28:45.178Z,25.25
2023-03-06T20:31:47.964Z,24.35
2023-03-06T20:34:51.374Z,32.97
2023-03-06T20:37:54.393Z,55.17
2023-03-06T20:40:58.932Z,34.92
2023-03-06T20:44:04.220Z,33.35
2023-03-06T20:47:09.004Z,32.70
2023-03-06T20:50:11.937Z,36.67
2023-03-06T20:53:15.021Z,45.42
2023-03-06T20:56:19.961Z,35.67
2023-03-06T20:59:23.855Z,32.88
2023-03-06T21:02:27.101Z,34.85
2023-03-06T21:05:30.131Z,32.93
2023-03-06T21:08:32.726Z,145.27
2023-03-06T21:11:35.725Z,99.05
2023-03-06T21:14:38.515Z,60.55
2023-03-06T21:17:41.692Z,64.45
2023-03-06T21:20:44.974Z,36.70
2023-03-06T21:23:48.523Z,42.30
2023-03-06T21:26:51.995Z,35.92
2023-03-06T21:29:54.916Z,34.28
2023-03-06T21:32:57.428Z,33.03
2023-03-06T21:36:00.450Z,36.47
2023-03-06T21:39:06.324Z,39.42
2023-03-06T21:42:09.877Z,36.72
2023-03-06T21:45:12.732Z,39.70
2023-03-06T21:48:16.010Z,35.47
2023-03-06T21:51:20.876Z,38.77
2023-03-06T21:54:23.836Z,34.63
2023-03-06T21:57:26.758Z,35.95
2023-03-06T22:00:29.814Z,34.38
2023-03-06T22:03:32.794Z,31.08
2023-03-06T22:06:35.309Z,37.20
2023-03-06T22:09:38.161Z,32.58
2023-03-06T22:12:40.788Z,34.97
2023-03-06T22:15:53.419Z,31.55
2023-03-06T22:18:56.522Z,26.48
2023-03-06T22:21:59.415Z,26.33
2023-03-06T22:25:02.277Z,33.55
2023-03-06T22:28:05.159Z,35.75
2023-03-06T22:31:14.681Z,31.60
2023-03-06T22:34:17.575Z,30.12
2023-03-06T22:37:20.058Z,28.30
2023-03-06T22:40:22.890Z,33.28
2023-03-06T22:43:25.470Z,32.10
2023-03-06T22:46:28.340Z,31.52
2023-03-06T22:49:31.078Z,39.95
2023-03-06T22:52:34.208Z,32.77
2023-03-06T22:55:36.795Z,39.45
2023-03-06T22:58:40.423Z,31.75
2023-03-06T23:01:43.277Z,36.92
2023-03-06T23:04:52.354Z,54.75
2023-03-06T23:07:54.927Z,40.30
2023-03-06T23:10:57.278Z,29.45
2023-03-06T23:14:19.196Z,31.77
2023-03-06T23:17:40.316Z,40.28
2023-03-06T23:21:00.957Z,38.70
2023-03-06T23:24:22.585Z,40.10
2023-03-06T23:27:25.598Z,46.42
2023-03-06T23:30:28.255Z,48.58
2023-03-06T23:33:31.126Z,42.55
2023-03-06T23:36:33.848Z,56.63
2023-03-06T23:39:37.534Z,47.50
2023-03-06T23:42:40.354Z,46.03
2023-03-06T23:45:52.898Z,65.57
2023-03-06T23:48:55.540Z,51.05
2023-03-06T23:51:58.649Z,60.17
2023-03-06T23:55:01.657Z,57.67
2023-03-06T23:58:04.863Z,54.90
